createdAt,value
2022-11-16T00:02:18.481Z,12.65
2022-11-16T00:04:47.802Z,10.52
2022-11-16T00:07:17.147Z,9.27
2022-11-16T00:09:46.529Z,10.05
2022-11-16T00:12:15.755Z,9.48
2022-11-16T00:14:45.036Z,9.32
2022-11-16T00:17:14.303Z,9.88
2022-11-16T00:19:43.554Z,11.73
2022-11-16T00:22:12.810Z,9.63
2022-11-16T00:24:42.350Z,9.75
2022-11-16T00:27:11.550Z,7.95
2022-11-16T00:29:40.808Z,6.20
2022-11-16T00:32:10.068Z,6.53
2022-11-16T00:34:39.379Z,6.18
2022-11-16T00:37:08.712Z,7.03
2022-11-16T00:39:37.906Z,5.13
2022-11-16T00:42:07.145Z,4.80
2022-11-16T00:44:36.407Z,5.00
2022-11-16T00:47:05.690Z,4.07
2022-11-16T00:49:35.024Z,5.03
2022-11-16T00:52:04.257Z,5.03
2022-11-16T00:54:33.606Z,6.07
2022-11-16T00:57:03.033Z,4.63
2022-11-16T00:59:32.343Z,5.20
2022-11-16T01:02:01.620Z,8.25
2022-11-16T01:04:30.855Z,7.00
2022-11-16T01:07:00.148Z,7.00
2022-11-16T01:09:29.649Z,6.90
2022-11-16T01:12:14.296Z,6.05
2022-11-16T01:14:46.623Z,5.82
2022-11-16T01:17:16.551Z,5.68
2022-11-16T01:19:45.911Z,7.25
2022-11-16T01:22:15.373Z,5.75
2022-11-16T01:24:44.808Z,4.80
2022-11-16T01:27:14.308Z,7.32
2022-11-16T01:29:50.848Z,5.63
2022-11-16T01:32:20.192Z,4.75
2022-11-16T01:34:49.506Z,5.03
2022-11-16T01:37:21.270Z,5.00
2022-11-16T01:39:52.117Z,10.77
2022-11-16T01:42:28.209Z,5.03
2022-11-16T01:45:01.894Z,4.07
2022-11-16T01:47:31.389Z,6.00
2022-11-16T01:50:07.954Z,3.97
2022-11-16T01:52:41.055Z,4.70
2022-11-16T01:55:11.376Z,3.78
2022-11-16T01:57:44.246Z,4.25
2022-11-16T02:00:14.782Z,4.32
2022-11-16T02:02:45.197Z,4.18
2022-11-16T02:05:18.737Z,5.05
2022-11-16T02:08:16.531Z,4.60
2022-11-16T02:10:57.817Z,4.13
2022-11-16T02:13:36.775Z,4.00
2022-11-16T02:16:27.555Z,4.00
2022-11-16T02:19:19.141Z,3.53
2022-11-16T02:22:00.739Z,3.42
2022-11-16T02:24:31.918Z,3.40
2022-11-16T02:27:14.632Z,3.25
2022-11-16T02:29:55.048Z,3.50
2022-11-16T02:32:29.728Z,3.55
2022-11-16T02:35:04.799Z,2.97
2022-11-16T02:37:38.780Z,3.40
2022-11-16T02:40:12.845Z,2.67
2022-11-16T02:42:47.900Z,2.83
2022-11-16T02:45:26.345Z,2.85
2022-11-16T02:47:59.270Z,3.45
2022-11-16T02:50:30.695Z,3.75
2022-11-16T02:53:00.099Z,4.00
2022-11-16T02:55:32.122Z,2.90
2022-11-16T02:58:03.351Z,3.13
2022-11-16T03:00:38.998Z,4.00
2022-11-16T03:03:29.377Z,3.17
2022-11-16T03:06:13.010Z,3.58
2022-11-16T03:08:51.376Z,3.50
2022-11-16T03:11:40.369Z,4.53
2022-11-16T03:14:15.161Z,10.75
2022-11-16T03:16:50.486Z,4.47
2022-11-16T03:19:26.945Z,3.05
2022-11-16T03:22:00.343Z,3.38
2022-11-16T03:24:29.870Z,3.28
2022-11-16T03:27:12.665Z,3.90
2022-11-16T03:29:57.072Z,3.47
2022-11-16T03:32:34.835Z,3.35
2022-11-16T03:35:17.643Z,3.42
2022-11-16T03:37:49.262Z,3.47
2022-11-16T03:40:20.192Z,3.45
2022-11-16T03:42:51.421Z,3.63
2022-11-16T03:45:21.792Z,3.22
2022-11-16T03:47:51.111Z,3.15
2022-11-16T03:50:20.349Z,3.33
2022-11-16T03:52:49.709Z,3.28
2022-11-16T03:55:18.985Z,4.05
2022-11-16T03:57:48.196Z,3.78
2022-11-16T04:00:17.907Z,3.50
2022-11-16T04:02:47.248Z,4.32
2022-11-16T04:05:36.385Z,3.72
2022-11-16T04:08:25.242Z,3.63
2022-11-16T04:11:14.143Z,3.28
2022-11-16T04:14:08.941Z,2.92
2022-11-16T04:16:58.321Z,3.78
2022-11-16T04:19:47.133Z,3.08
2022-11-16T04:22:44.768Z,3.42
2022-11-16T04:25:20.413Z,2.90
2022-11-16T04:28:09.637Z,3.45
2022-11-16T04:30:58.641Z,2.70
2022-11-16T04:33:47.946Z,2.85
2022-11-16T04:36:37.181Z,2.67
2022-11-16T04:39:06.634Z,3.38
2022-11-16T04:41:55.982Z,2.92
2022-11-16T04:44:29.904Z,3.85
2022-11-16T04:47:15.869Z,2.70
2022-11-16T04:49:45.176Z,3.22
2022-11-16T04:52:14.546Z,3.00
2022-11-16T04:54:43.805Z,2.70
2022-11-16T04:57:13.153Z,2.80
2022-11-16T04:59:42.466Z,2.83
2022-11-16T05:02:16.953Z,2.80
2022-11-16T05:04:47.857Z,2.63
2022-11-16T05:07:19.077Z,3.10
2022-11-16T05:09:50.674Z,2.90
2022-11-16T05:12:23.580Z,3.13
2022-11-16T05:14:52.939Z,2.97
2022-11-16T05:17:22.548Z,2.90
2022-11-16T05:20:11.573Z,2.85
2022-11-16T05:22:41.391Z,3.25
2022-11-16T05:25:12.776Z,3.30
2022-11-16T05:27:42.768Z,3.42
2022-11-16T05:30:13.005Z,3.30
2022-11-16T05:32:42.926Z,3.10
2022-11-16T05:35:15.950Z,3.13
2022-11-16T05:37:47.899Z,3.28
2022-11-16T05:40:18.192Z,3.05
2022-11-16T05:42:48.173Z,3.33
2022-11-16T05:45:20.989Z,2.75
2022-11-16T05:47:57.205Z,2.72
2022-11-16T05:50:27.015Z,3.25
2022-11-16T05:52:57.051Z,2.50
2022-11-16T05:55:28.151Z,3.10
2022-11-16T05:57:58.230Z,2.78
2022-11-16T06:00:31.313Z,3.85
2022-11-16T06:03:04.610Z,3.25
2022-11-16T06:05:40.762Z,2.88
2022-11-16T06:08:14.290Z,2.58
2022-11-16T06:10:44.257Z,3.22
2022-11-16T06:13:17.339Z,2.60
2022-11-16T06:15:55.908Z,2.90
2022-11-16T06:18:26.232Z,3.75
2022-11-16T06:20:59.085Z,2.72
2022-11-16T06:23:28.995Z,2.80
2022-11-16T06:26:01.830Z,2.97
2022-11-16T06:28:31.529Z,3.20
2022-11-16T06:31:02.541Z,3.05
2022-11-16T06:33:34.210Z,3.08
2022-11-16T06:36:03.979Z,2.97
2022-11-16T06:38:35.458Z,2.97
2022-11-16T06:41:07.109Z,2.45
2022-11-16T06:43:36.730Z,2.75
2022-11-16T06:46:07.166Z,2.40
2022-11-16T06:48:37.099Z,3.33
2022-11-16T06:51:07.332Z,2.80
2022-11-16T06:53:37.903Z,2.42
2022-11-16T06:56:09.267Z,2.55
2022-11-16T06:58:42.639Z,2.55
2022-11-16T07:01:14.738Z,2.63
2022-11-16T07:03:45.216Z,2.70
2022-11-16T07:06:18.878Z,2.67
2022-11-16T07:08:48.415Z,2.60
2022-11-16T07:11:17.664Z,2.20
2022-11-16T07:13:47.533Z,2.63
2022-11-16T07:16:17.995Z,2.78
2022-11-16T07:18:49.059Z,2.47
2022-11-16T07:21:23.612Z,2.78
2022-11-16T07:23:53.958Z,2.55
2022-11-16T07:26:24.046Z,2.10
2022-11-16T07:28:54.027Z,2.40
2022-11-16T07:31:27.168Z,2.67
2022-11-16T07:33:57.028Z,2.60
2022-11-16T07:36:26.642Z,2.42
2022-11-16T07:38:56.308Z,2.20
2022-11-16T07:41:37.330Z,2.10
2022-11-16T07:44:11.778Z,2.00
2022-11-16T07:46:47.204Z,3.42
2022-11-16T07:49:20.410Z,2.60
2022-11-16T07:51:50.559Z,2.25
2022-11-16T07:54:21.748Z,2.33
2022-11-16T07:56:55.308Z,2.28
2022-11-16T07:59:25.120Z,2.85
2022-11-16T08:01:57.292Z,2.70
2022-11-16T08:04:29.849Z,2.75
2022-11-16T08:06:59.192Z,2.33
2022-11-16T08:09:29.043Z,2.45
2022-11-16T08:11:58.284Z,2.53
2022-11-16T08:14:27.677Z,2.03
2022-11-16T08:16:56.979Z,2.55
2022-11-16T08:19:26.201Z,2.15
2022-11-16T08:21:55.429Z,2.67
2022-11-16T08:24:24.863Z,2.58
2022-11-16T08:26:55.603Z,2.47
2022-11-16T08:29:24.934Z,2.35
2022-11-16T08:31:54.340Z,2.13
2022-11-16T08:34:23.652Z,2.38
2022-11-16T08:36:53.026Z,2.03
2022-11-16T08:39:22.313Z,2.30
2022-11-16T08:41:52.944Z,1.92
2022-11-16T08:44:22.129Z,2.75
2022-11-16T08:46:51.552Z,2.03
2022-11-16T08:49:20.911Z,2.13
2022-11-16T08:51:50.100Z,2.92
2022-11-16T08:54:19.310Z,2.50
2022-11-16T08:56:48.622Z,2.10
2022-11-16T08:59:17.900Z,3.03
2022-11-16T09:01:47.248Z,2.40
2022-11-16T09:04:16.518Z,2.58
2022-11-16T09:06:46.375Z,3.95
2022-11-16T09:09:15.763Z,3.80
2022-11-16T09:11:44.947Z,3.30
2022-11-16T09:14:14.189Z,3.33
2022-11-16T09:16:43.422Z,3.45
2022-11-16T09:19:12.720Z,3.38
2022-11-16T09:21:42.106Z,3.45
2022-11-16T09:24:11.696Z,4.38
2022-11-16T09:26:40.882Z,4.72
2022-11-16T09:29:13.472Z,4.40
2022-11-16T09:31:43.339Z,5.05
2022-11-16T09:34:12.748Z,4.05
2022-11-16T09:36:42.082Z,3.33
2022-11-16T09:39:30.081Z,5.57
2022-11-16T09:42:09.719Z,4.60
2022-11-16T09:45:05.892Z,2.65
2022-11-16T09:47:44.760Z,3.88
2022-11-16T09:53:40.687Z,4.00
2022-11-16T09:56:21.676Z,4.38
2022-11-16T09:58:58.431Z,4.20
2022-11-16T10:01:31.621Z,4.03
2022-11-16T10:04:24.984Z,4.60
2022-11-16T10:07:04.867Z,3.90
2022-11-16T10:09:34.665Z,4.22
2022-11-16T10:12:32.006Z,3.83
2022-11-16T10:15:16.606Z,4.15
2022-11-16T10:18:05.922Z,4.78
2022-11-16T10:20:52.451Z,4.65
2022-11-16T10:23:30.208Z,4.38
2022-11-16T10:26:21.902Z,4.78
2022-11-16T10:29:03.513Z,4.30
2022-11-16T10:31:56.080Z,4.30
2022-11-16T10:34:30.125Z,4.88
2022-11-16T10:37:05.497Z,4.72
2022-11-16T10:39:35.786Z,4.78
2022-11-16T10:42:12.829Z,4.13
2022-11-16T10:44:46.265Z,4.40
2022-11-16T10:47:38.225Z,3.80
2022-11-16T10:50:41.198Z,4.82
2022-11-16T10:53:16.402Z,5.78
2022-11-16T10:55:45.597Z,7.43
2022-11-16T10:58:14.832Z,6.40
2022-11-16T11:00:49.395Z,7.53
2022-11-16T11:03:33.216Z,8.30
2022-11-16T11:06:03.884Z,8.05
2022-11-16T11:08:33.735Z,7.35
2022-11-16T11:11:25.679Z,7.45
2022-11-16T11:14:16.776Z,6.57
2022-11-16T11:16:46.036Z,7.53
2022-11-16T11:19:28.927Z,8.45
2022-11-16T11:24:43.798Z,7.68
2022-11-16T11:27:14.577Z,7.82
2022-11-16T11:29:45.533Z,8.20
2022-11-16T11:32:23.779Z,8.43
2022-11-16T11:34:55.904Z,7.13
2022-11-16T11:37:29.372Z,8.30
2022-11-16T11:40:18.600Z,10.13
2022-11-16T11:43:07.789Z,11.13
2022-11-16T11:45:46.712Z,12.32
2022-11-16T11:48:39.479Z,12.30
2022-11-16T11:51:24.557Z,11.95
2022-11-16T11:54:02.872Z,13.40
2022-11-16T11:56:35.482Z,12.73
2022-11-16T11:59:06.463Z,12.45
2022-11-16T12:02:14.869Z,13.70
2022-11-16T12:05:10.416Z,12.75
2022-11-16T12:07:55.949Z,10.70
2022-11-16T12:10:45.232Z,11.65
2022-11-16T12:13:34.696Z,10.98
2022-11-16T12:16:10.677Z,9.95
2022-11-16T12:19:07.127Z,9.60
2022-11-16T12:21:52.820Z,9.32
2022-11-16T12:24:43.106Z,9.15
2022-11-16T12:27:51.465Z,10.07
2022-11-16T12:30:23.980Z,10.20
2022-11-16T12:33:14.252Z,10.32
2022-11-16T12:35:48.027Z,10.93
2022-11-16T12:38:37.323Z,10.13
2022-11-16T12:41:27.039Z,9.25
2022-11-16T12:44:03.799Z,9.80
2022-11-16T12:46:53.309Z,9.32
2022-11-16T12:50:01.742Z,9.43
2022-11-16T12:53:00.343Z,9.15
2022-11-16T12:55:39.645Z,8.85
2022-11-16T12:58:48.022Z,8.70
2022-11-16T13:01:32.913Z,8.07
2022-11-16T13:04:23.808Z,8.70
2022-11-16T13:07:14.744Z,8.93
2022-11-16T13:09:51.001Z,8.82
2022-11-16T13:12:25.082Z,8.93
2022-11-16T13:14:59.133Z,9.30
2022-11-16T13:17:34.872Z,9.68
2022-11-16T13:20:36.074Z,9.43
2022-11-16T13:23:13.120Z,9.32
2022-11-16T13:26:02.589Z,10.13
2022-11-16T13:28:33.762Z,10.13
2022-11-16T13:31:16.806Z,9.98
2022-11-16T13:33:52.204Z,8.47
2022-11-16T13:36:47.259Z,9.48
2022-11-16T13:39:22.703Z,9.20
2022-11-16T13:42:09.076Z,8.82
2022-11-16T13:44:38.638Z,9.40
2022-11-16T13:47:24.425Z,9.38
2022-11-16T13:49:59.103Z,9.65
2022-11-16T13:53:40.924Z,9.20
2022-11-16T13:55:43.254Z,8.45
2022-11-16T13:58:21.780Z,9.32
2022-11-16T14:01:16.901Z,9.02
2022-11-16T14:03:53.181Z,8.07
2022-11-16T14:06:24.564Z,8.38
2022-11-16T14:08:56.980Z,8.15
2022-11-16T14:11:36.436Z,8.93
2022-11-16T14:14:11.695Z,8.90
2022-11-16T14:16:49.633Z,9.25
2022-11-16T14:19:48.807Z,10.27
2022-11-16T14:22:19.879Z,9.77
2022-11-16T14:25:03.238Z,9.80
2022-11-16T14:27:47.567Z,10.02
2022-11-16T14:30:26.344Z,10.45
2022-11-16T14:32:57.732Z,10.68
2022-11-16T14:35:42.830Z,11.13
2022-11-16T14:38:32.304Z,10.38
2022-11-16T14:41:04.429Z,10.60
2022-11-16T14:43:41.178Z,11.80
2022-11-16T14:46:18.810Z,12.30
2022-11-16T14:48:49.232Z,12.50
2022-11-16T14:51:23.612Z,13.23
2022-11-16T14:54:00.207Z,13.10
2022-11-16T14:56:29.517Z,14.40
2022-11-16T14:59:03.859Z,15.93
2022-11-16T15:01:40.506Z,15.00
2022-11-16T15:04:12.713Z,15.35
2022-11-16T15:06:47.598Z,15.50
2022-11-16T15:09:24.126Z,14.13
2022-11-16T15:12:13.506Z,14.48
2022-11-16T15:14:56.423Z,14.75
2022-11-16T15:20:07.302Z,16.05
2022-11-16T15:22:43.112Z,17.00
2022-11-16T15:25:44.250Z,16.77
2022-11-16T15:28:23.485Z,16.27
2022-11-16T15:31:06.833Z,16.00
2022-11-16T15:33:42.076Z,17.38
2022-11-16T15:36:33.310Z,17.40
2022-11-16T15:39:05.609Z,17.90
2022-11-16T15:41:35.783Z,18.02
2022-11-16T15:44:14.584Z,18.38
2022-11-16T15:46:48.817Z,18.63
2022-11-16T15:49:38.833Z,18.38
2022-11-16T15:52:08.180Z,17.63
2022-11-16T15:54:57.673Z,19.85
2022-11-16T15:57:27.329Z,17.38
2022-11-16T15:59:58.717Z,16.80
2022-11-16T16:02:30.315Z,18.67
2022-11-16T16:04:59.773Z,17.13
2022-11-16T16:07:45.617Z,16.50
2022-11-16T16:10:24.319Z,18.88
2022-11-16T16:12:58.212Z,17.73
2022-11-16T16:15:31.718Z,17.58
2022-11-16T16:18:02.313Z,18.38
2022-11-16T16:20:33.722Z,16.88
2022-11-16T16:23:13.404Z,16.73
2022-11-16T16:25:47.434Z,16.38
2022-11-16T16:28:19.403Z,16.88
2022-11-16T16:30:52.312Z,16.50
2022-11-16T16:33:23.392Z,16.35
2022-11-16T16:35:52.724Z,17.05
2022-11-16T16:38:21.949Z,16.42
2022-11-16T16:40:51.121Z,16.65
2022-11-16T16:43:20.399Z,16.33
2022-11-16T16:45:49.687Z,16.38
2022-11-16T16:48:19.982Z,15.82
2022-11-16T16:50:49.261Z,16.38
2022-11-16T16:53:18.513Z,16.08
2022-11-16T16:55:50.315Z,15.77
2022-11-16T16:58:19.696Z,15.38
2022-11-16T17:01:22.826Z,17.08
2022-11-16T17:03:52.101Z,16.92
2022-11-16T17:06:21.470Z,16.42
2022-11-16T17:08:50.662Z,16.40
2022-11-16T17:11:19.967Z,17.05
2022-11-16T17:13:49.229Z,15.95
2022-11-16T17:16:18.541Z,17.23
2022-11-16T17:18:47.757Z,16.90
2022-11-16T17:21:17.099Z,17.05
2022-11-16T17:23:46.293Z,15.90
2022-11-16T17:26:15.551Z,16.30
2022-11-16T17:28:44.799Z,16.95
2022-11-16T17:31:15.157Z,17.10
2022-11-16T17:33:45.314Z,17.52
2022-11-16T17:36:15.708Z,16.48
2022-11-16T17:38:45.339Z,15.90
2022-11-16T17:41:16.686Z,16.70
2022-11-16T17:43:47.720Z,16.35
2022-11-16T17:46:19.103Z,16.98
2022-11-16T17:48:49.976Z,17.70
2022-11-16T17:51:21.470Z,18.10
2022-11-16T17:53:51.466Z,18.23
2022-11-16T17:56:23.209Z,18.20
2022-11-16T17:58:53.547Z,18.30
2022-11-16T18:01:24.262Z,18.80
2022-11-16T18:03:53.627Z,18.80
2022-11-16T18:06:24.746Z,19.17
2022-11-16T18:08:55.825Z,18.65
2022-11-16T18:11:27.209Z,18.48
2022-11-16T18:13:59.904Z,18.55
2022-11-16T18:16:32.133Z,18.17
2022-11-16T18:19:05.060Z,17.60
2022-11-16T18:21:40.637Z,18.98
2022-11-16T18:24:10.743Z,17.35
2022-11-16T18:26:41.836Z,18.48
2022-11-16T18:29:14.135Z,17.95
2022-11-16T18:31:43.661Z,17.20
2022-11-16T18:34:15.892Z,17.13
2022-11-16T18:36:45.482Z,17.38
2022-11-16T18:39:14.777Z,17.33
2022-11-16T18:41:53.376Z,16.85
2022-11-16T18:44:24.524Z,17.00
2022-11-16T18:46:53.747Z,17.85
2022-11-16T18:49:22.981Z,16.33
2022-11-16T18:51:52.210Z,16.10
2022-11-16T18:54:21.571Z,16.27
2022-11-16T18:56:50.769Z,16.73
2022-11-16T18:59:20.157Z,15.82
2022-11-16T19:01:49.397Z,14.50
2022-11-16T19:04:18.601Z,14.57
2022-11-16T19:06:48.082Z,14.93
2022-11-16T19:09:17.355Z,14.23
2022-11-16T19:11:46.694Z,15.45
2022-11-16T19:14:15.905Z,14.35
2022-11-16T19:16:53.980Z,15.10
2022-11-16T19:19:25.689Z,14.25
2022-11-16T19:21:55.165Z,14.07
2022-11-16T19:24:24.754Z,14.73
2022-11-16T19:26:54.225Z,14.32
2022-11-16T19:29:23.483Z,13.75
2022-11-16T19:31:52.689Z,13.43
2022-11-16T19:34:21.882Z,13.95
2022-11-16T19:36:51.107Z,13.18
2022-11-16T19:39:20.381Z,13.05
2022-11-16T19:41:49.760Z,12.73
2022-11-16T19:44:18.983Z,13.45
2022-11-16T19:46:48.210Z,13.02
2022-11-16T19:49:20.477Z,12.93
2022-11-16T19:51:51.145Z,13.60
2022-11-16T19:54:20.498Z,13.10
2022-11-16T19:56:54.880Z,12.88
2022-11-16T19:59:24.680Z,13.18
2022-11-16T20:01:53.969Z,12.82
2022-11-16T20:04:23.319Z,13.05
2022-11-16T20:06:53.101Z,12.15
2022-11-16T20:09:22.340Z,12.88
2022-11-16T20:11:51.584Z,12.55
2022-11-16T20:14:20.812Z,11.68
2022-11-16T20:16:51.790Z,10.50
2022-11-16T20:19:25.134Z,10.90
2022-11-16T20:21:54.919Z,10.57
2022-11-16T20:24:24.264Z,9.80
2022-11-16T20:26:53.529Z,11.10
2022-11-16T20:29:22.835Z,10.98
2022-11-16T20:31:52.067Z,10.95
2022-11-16T20:34:23.459Z,9.38
2022-11-16T20:36:52.747Z,9.65
2022-11-16T20:39:23.086Z,10.73
2022-11-16T20:41:52.371Z,9.65
2022-11-16T20:44:23.501Z,9.88
2022-11-16T20:46:54.274Z,10.55
2022-11-16T20:49:23.549Z,10.52
2022-11-16T20:51:53.011Z,10.23
2022-11-16T20:54:22.215Z,10.32
2022-11-16T20:56:51.931Z,10.18
2022-11-16T20:59:21.268Z,9.70
2022-11-16T21:01:53.778Z,10.27
2022-11-16T21:04:23.421Z,10.55
2022-11-16T21:06:52.666Z,10.32
2022-11-16T21:09:24.684Z,9.38
2022-11-16T21:12:13.736Z,9.80
2022-11-16T21:14:42.984Z,10.68
2022-11-16T21:17:12.174Z,10.82
2022-11-16T21:19:54.285Z,10.18
2022-11-16T21:22:32.411Z,10.15
2022-11-16T21:25:02.238Z,9.77
2022-11-16T21:27:31.476Z,9.70
2022-11-16T21:30:00.722Z,9.70
2022-11-16T21:32:29.934Z,10.13
2022-11-16T21:34:59.096Z,10.35
2022-11-16T21:37:28.346Z,9.73
2022-11-16T21:39:57.565Z,9.63
2022-11-16T21:42:26.768Z,9.88
2022-11-16T21:44:55.989Z,9.63
2022-11-16T21:47:25.294Z,9.63
2022-11-16T21:50:24.901Z,9.20
2022-11-16T21:52:43.722Z,8.35
2022-11-16T21:55:13.299Z,7.90
2022-11-16T21:57:42.494Z,8.48
2022-11-16T22:00:15.457Z,8.55
2022-11-16T22:02:44.688Z,8.15
2022-11-16T22:05:33.779Z,7.93
2022-11-16T22:08:08.123Z,7.80
2022-11-16T22:10:37.641Z,7.55
2022-11-16T22:13:07.173Z,7.65
2022-11-16T22:15:36.396Z,7.15
2022-11-16T22:18:05.843Z,7.50
2022-11-16T22:20:35.754Z,6.65
2022-11-16T22:23:05.163Z,8.07
2022-11-16T22:25:34.399Z,7.40
2022-11-16T22:28:20.246Z,6.80
2022-11-16T22:30:52.011Z,8.15
2022-11-16T22:33:21.871Z,9.20
2022-11-16T22:35:51.104Z,7.70
2022-11-16T22:38:20.282Z,9.18
2022-11-16T22:40:52.561Z,8.48
2022-11-16T22:43:23.416Z,7.72
2022-11-16T22:45:52.838Z,7.05
2022-11-16T22:48:22.107Z,8.88
2022-11-16T22:50:51.320Z,9.77
2022-11-16T22:53:20.546Z,12.63
2022-11-16T22:55:49.900Z,11.43
2022-11-16T22:58:19.138Z,11.20
2022-11-16T23:00:48.338Z,10.45
2022-11-16T23:03:18.334Z,9.38
2022-11-16T23:05:47.610Z,10.63
2022-11-16T23:08:16.781Z,16.35
2022-11-16T23:11:05.642Z,9.32
2022-11-16T23:13:54.420Z,9.77
2022-11-16T23:16:23.681Z,9.23
2022-11-16T23:18:52.929Z,10.43
2022-11-16T23:21:42.004Z,10.02
2022-11-16T23:24:33.096Z,10.25
2022-11-16T23:27:25.156Z,11.35
2022-11-16T23:29:54.897Z,10.60
2022-11-16T23:32:24.112Z,10.20
2022-11-16T23:34:53.339Z,9.55
2022-11-16T23:37:22.772Z,11.40
2022-11-16T23:39:52.075Z,8.93
2022-11-16T23:42:40.935Z,11.57
2022-11-16T23:45:10.615Z,9.55
2022-11-16T23:47:39.824Z,9.05
2022-11-16T23:50:09.301Z,9.50
2022-11-16T23:52:38.528Z,9.63
2022-11-16T23:55:08.265Z,10.63
2022-11-16T23:57:37.511Z,9.93
